Time;durP1;ratioP1;P1;durP2;ratioP2;P2;SDS_P1;SDS_P2;PMS_P1;PMS_P2;Temp;Humidity;BMP_temperature;BMP_pressure;BME280_temperature;BME280_humidity;BME280_pressure;Samples;Min_cycle;Max_cycle;Signal;HPM_P1;HPM_P2
2023/08/12 00:01:44;;;;;;;;;;;;;;;20.79;66.68;101538.38;4171159;28;20015;-71
2023/08/12 00:03:46;;;;;;;;;;;;;;;20.77;66.87;101546.84;4171372;28;20012;-71
2023/08/12 00:05:48;;;;;;;;;;;;;;;20.76;66.96;101545.13;4170926;28;20008;-71
2023/08/12 00:07:49;;;;;;;;;;;;;;;20.73;66.97;101539.28;4153085;28;20016;-71
2023/08/12 00:09:53;;;;;;;;;;;;;;;20.71;66.93;101550.47;4169695;28;19929;-71
2023/08/12 00:11:57;;;;;;;;;;;;;;;20.68;67.28;101546.25;4170657;28;20016;-71
2023/08/12 00:13:59;;;;;;;;;;;;;;;20.66;67.28;101550.31;4171248;28;20016;-71
2023/08/12 00:16:01;;;;;;;;;;;;;;;20.64;67.34;101552.38;4171022;28;19953;-71
2023/08/12 00:18:06;;;;;;;;;;;;;;;20.63;67.38;101551.56;4171072;28;20011;-71
2023/08/12 00:20:10;;;;;;;;;;;;;;;20.62;67.38;101560.03;4170682;28;20016;-71
2023/08/12 00:22:12;;;;;;;;;;;;;;;20.60;67.56;101552.00;4171021;28;20431;-71
2023/08/12 00:24:14;;;;;;;;;;;;;;;20.59;67.51;101552.22;4153515;28;20375;-71
2023/08/12 00:26:16;;;;;;;;;;;;;;;20.56;67.77;101556.25;4170909;28;20031;-71
2023/08/12 00:28:18;;;;;;;;;;;;;;;20.55;67.85;101551.00;4160691;28;20020;-71
2023/08/12 00:30:21;;;;;;;;;;;;;;;20.53;67.91;101548.47;4170701;28;20008;-71
2023/08/12 00:32:24;;;;;;;;;;;;;;;20.51;67.77;101545.94;4153306;28;20431;-71
2023/08/12 00:34:27;;;;;;;;;;;;;;;20.50;67.85;101544.28;4170580;28;20015;-71
2023/08/12 00:36:29;;;;;;;;;;;;;;;20.49;67.90;101542.59;4171430;28;20050;-71
2023/08/12 00:38:31;;;;;;;;;;;;;;;20.48;67.98;101543.66;4170852;28;20108;-71
2023/08/12 00:40:33;;;;;;;;;;;;;;;20.48;68.00;101542.81;4159860;28;20466;-71
2023/08/12 00:42:35;;;;;;;;;;;;;;;20.46;68.02;101540.31;4171360;28;20031;-71
2023/08/12 00:44:39;;;;;;;;;;;;;;;20.44;68.44;101533.34;4160546;28;20027;-72
2023/08/12 00:46:41;;;;;;;;;;;;;;;20.43;68.16;101532.50;4170695;28;20036;-71
2023/08/12 00:48:46;;;;;;;;;;;;;;;20.42;68.34;101530.81;4153045;28;20020;-71
2023/08/12 00:50:48;;;;;;;;;;;;;;;20.42;68.41;101525.34;4160020;28;20020;-71
2023/08/12 00:52:50;;;;;;;;;;;;;;;20.41;68.41;101531.09;4153470;28;20517;-71
2023/08/12 00:54:52;;;;;;;;;;;;;;;20.40;68.41;101527.47;4153198;28;20012;-71
2023/08/12 00:56:54;;;;;;;;;;;;;;;20.38;68.53;101521.38;4152619;28;20019;-71
2023/08/12 00:58:57;;;;;;;;;;;;;;;20.38;68.47;101523.28;4160396;28;20023;-71
2023/08/12 01:00:59;;;;;;;;;;;;;;;20.37;68.57;101505.97;4160641;28;20024;-71
2023/08/12 01:03:01;;;;;;;;;;;;;;;20.37;68.33;101507.88;4170396;28;20040;-71
2023/08/12 01:05:05;;;;;;;;;;;;;;;20.37;68.40;101507.88;4155267;28;19925;-71
2023/08/12 01:07:07;;;;;;;;;;;;;;;20.37;68.34;101500.47;4173676;28;20012;-71
2023/08/12 01:09:10;;;;;;;;;;;;;;;20.37;68.54;101494.16;4174197;28;20015;-71
2023/08/12 01:11:12;;;;;;;;;;;;;;;20.34;68.53;101498.19;4154296;28;20069;-71
2023/08/12 01:13:21;;;;;;;;;;;;;;;20.34;68.43;101501.78;4173961;28;20464;-71
2023/08/12 01:15:26;;;;;;;;;;;;;;;20.34;68.60;101489.97;4162973;28;20036;-71
2023/08/12 01:17:28;;;;;;;;;;;;;;;20.31;68.55;101483.03;4173856;28;19955;-71
2023/08/12 01:19:31;;;;;;;;;;;;;;;20.31;68.65;101490.41;4173270;28;20024;-71
2023/08/12 01:21:34;;;;;;;;;;;;;;;20.30;68.74;101486.00;4173749;28;20011;-71
2023/08/12 01:23:38;;;;;;;;;;;;;;;20.28;68.27;101490.84;4155196;28;20024;-71
2023/08/12 01:25:40;;;;;;;;;;;;;;;20.28;68.47;101493.59;4173403;28;20016;-71
2023/08/12 01:27:43;;;;;;;;;;;;;;;20.27;68.26;101483.72;4173383;28;20020;-71
2023/08/12 01:29:45;;;;;;;;;;;;;;;20.27;68.34;101481.78;4172781;28;20020;-71
2023/08/12 01:31:49;;;;;;;;;;;;;;;20.24;68.71;101487.72;4173878;28;20017;-71
2023/08/12 01:33:53;;;;;;;;;;;;;;;20.24;68.39;101484.97;4164237;28;20024;-71
2023/08/12 01:35:56;;;;;;;;;;;;;;;20.25;68.36;101488.56;4175305;28;20521;-71
2023/08/12 01:37:58;;;;;;;;;;;;;;;20.25;68.50;101488.56;4172109;28;20028;-71
2023/08/12 01:40:04;;;;;;;;;;;;;;;20.23;68.43;101483.28;4146602;28;20016;-71
2023/08/12 01:42:06;;;;;;;;;;;;;;;20.21;68.58;101479.94;4173406;28;20471;-71
2023/08/12 01:44:08;;;;;;;;;;;;;;;20.22;68.38;101483.53;4173767;28;20020;-71
2023/08/12 01:46:10;;;;;;;;;;;;;;;20.19;68.43;101468.38;4174045;28;20015;-71
2023/08/12 01:48:12;;;;;;;;;;;;;;;20.19;68.51;101462.03;4173677;28;20013;-71
2023/08/12 01:50:15;;;;;;;;;;;;;;;20.17;68.49;101465.00;4173158;28;20028;-71
2023/08/12 01:52:17;;;;;;;;;;;;;;;20.17;68.43;101462.25;4173594;28;20394;-71
2023/08/12 01:54:19;;;;;;;;;;;;;;;20.18;68.27;101463.94;4173535;28;20027;-71
2023/08/12 01:56:22;;;;;;;;;;;;;;;20.18;68.31;101466.69;4172432;28;20032;-71
2023/08/12 01:58:26;;;;;;;;;;;;;;;20.17;67.98;101456.75;4155011;28;20093;-71
2023/08/12 02:00:28;;;;;;;;;;;;;;;20.16;68.27;101457.84;4163402;28;20020;-71
2023/08/12 02:02:30;;;;;;;;;;;;;;;20.15;68.23;101454.25;4173155;28;20442;-71
2023/08/12 02:04:32;;;;;;;;;;;;;;;20.13;68.04;101456.38;4155003;28;20028;-71
2023/08/12 02:06:34;;;;;;;;;;;;;;;20.13;68.25;101448.16;4173404;28;20446;-71
2023/08/12 02:08:37;;;;;;;;;;;;;;;20.13;68.06;101450.06;4173030;28;20015;-71
2023/08/12 02:10:39;;;;;;;;;;;;;;;20.12;68.04;101456.59;4172905;28;20019;-71
2023/08/12 02:12:42;;;;;;;;;;;;;;;20.11;68.27;101450.28;4172783;28;20358;-71
2023/08/12 02:14:44;;;;;;;;;;;;;;;20.11;68.14;101443.94;4162812;28;20024;-71
2023/08/12 02:16:50;;;;;;;;;;;;;;;20.12;68.11;101440.97;4172389;28;19991;-70
2023/08/12 02:18:57;;;;;;;;;;;;;;;20.13;67.91;101439.94;4173984;28;20350;-70
2023/08/12 02:20:59;;;;;;;;;;;;;;;20.13;68.12;101437.19;4172888;28;20483;-70
2023/08/12 02:23:01;;;;;;;;;;;;;;;20.13;67.75;101431.69;4162115;28;20021;-70
2023/08/12 02:25:03;;;;;;;;;;;;;;;20.13;67.74;101431.69;4172155;28;20019;-70
2023/08/12 02:27:05;;;;;;;;;;;;;;;20.14;67.63;101432.53;4172595;28;20020;-70
2023/08/12 02:29:08;;;;;;;;;;;;;;;20.13;67.77;101428.13;4154872;28;20024;-70
2023/08/12 02:31:10;;;;;;;;;;;;;;;20.12;67.65;101424.53;4172520;28;20013;-70
2023/08/12 02:33:12;;;;;;;;;;;;;;;20.11;67.72;101428.34;4172579;28;20027;-71
2023/08/12 02:35:14;;;;;;;;;;;;;;;20.13;67.77;101426.22;4153378;28;20032;-71
2023/08/12 02:37:17;;;;;;;;;;;;;;;20.12;67.76;101419.03;4172345;28;20035;-71
2023/08/12 02:39:19;;;;;;;;;;;;;;;20.13;67.59;101417.16;4172472;28;19933;-71
2023/08/12 02:41:20;;;;;;;;;;;;;;;20.13;67.67;101417.16;4153707;28;20039;-71
2023/08/12 02:43:22;;;;;;;;;;;;;;;20.12;67.61;101412.72;4172800;28;19967;-71
2023/08/12 02:45:24;;;;;;;;;;;;;;;20.12;67.63;101413.56;4162485;28;20003;-70
2023/08/12 02:47:26;;;;;;;;;;;;;;;20.11;67.58;101409.16;4171791;28;20008;-71
2023/08/12 02:49:28;;;;;;;;;;;;;;;20.11;67.69;101405.56;4153942;28;20391;-70
2023/08/12 02:51:30;;;;;;;;;;;;;;;20.10;67.68;101407.47;4171877;28;20012;-71
2023/08/12 02:53:32;;;;;;;;;;;;;;;20.09;67.53;101408.50;4172428;28;20015;-70
2023/08/12 02:55:34;;;;;;;;;;;;;;;20.10;67.43;101412.94;4170396;28;20019;-71
2023/08/12 02:57:36;;;;;;;;;;;;;;;20.10;67.49;101409.38;4161443;28;20023;-71
2023/08/12 02:59:38;;;;;;;;;;;;;;;20.09;67.82;101408.50;4171275;28;20574;-71
2023/08/12 03:01:42;;;;;;;;;;;;;;;20.07;67.90;101402.44;4172762;28;20028;-71
2023/08/12 03:03:44;;;;;;;;;;;;;;;20.08;67.81;101400.53;4162095;28;20622;-70
2023/08/12 03:05:46;;;;;;;;;;;;;;;20.06;67.87;101392.53;4153307;28;20036;-69
2023/08/12 03:07:48;;;;;;;;;;;;;;;20.06;67.69;101388.94;4172150;28;20023;-71
2023/08/12 03:09:50;;;;;;;;;;;;;;;20.06;67.93;101399.91;4161630;28;20362;-71
2023/08/12 03:11:52;;;;;;;;;;;;;;;20.06;67.64;101395.28;4154920;28;20024;-71
2023/08/12 03:13:54;;;;;;;;;;;;;;;20.05;67.66;101399.09;4153742;28;20035;-70
2023/08/12 03:15:57;;;;;;;;;;;;;;;20.05;67.70;101403.72;4160550;28;20435;-71
2023/08/12 03:18:02;;;;;;;;;;;;;;;20.03;67.83;101393.00;4161926;28;20020;-70
2023/08/12 03:20:06;;;;;;;;;;;;;;;20.02;67.96;101396.78;4161236;28;20000;-71
2023/08/12 03:22:09;;;;;;;;;;;;;;;20.02;67.76;101391.31;4137420;28;20020;-70
2023/08/12 03:24:13;;;;;;;;;;;;;;;20.02;67.91;101391.31;4161825;28;20016;-71
2023/08/12 03:26:16;;;;;;;;;;;;;;;20.01;67.85;101392.34;4154085;28;20032;-71
2023/08/12 03:28:18;;;;;;;;;;;;;;;20.01;67.90;101386.03;4160368;28;20016;-71
2023/08/12 03:30:20;;;;;;;;;;;;;;;20.00;67.70;101382.47;4171530;28;20024;-71
2023/08/12 03:32:22;;;;;;;;;;;;;;;19.99;67.73;101391.75;4154296;28;20498;-71
2023/08/12 03:34:25;;;;;;;;;;;;;;;19.99;67.66;101392.56;4152644;28;20025;-70
2023/08/12 03:36:27;;;;;;;;;;;;;;;19.97;67.85;101385.66;4161109;28;20375;-71
2023/08/12 03:38:29;;;;;;;;;;;;;;;19.97;67.75;101388.41;4171179;28;20011;-71
2023/08/12 03:40:32;;;;;;;;;;;;;;;19.96;67.80;101386.72;4152859;28;19925;-71
2023/08/12 03:42:34;;;;;;;;;;;;;;;19.96;67.72;101378.50;4153592;28;19976;-71
2023/08/12 03:44:38;;;;;;;;;;;;;;;19.96;67.58;101373.00;4161689;28;20550;-72
2023/08/12 03:46:41;;;;;;;;;;;;;;;19.96;67.44;101373.00;4153535;28;20028;-70
2023/08/12 03:48:43;;;;;;;;;;;;;;;19.96;67.64;101370.25;4155639;28;20479;-70
2023/08/12 03:50:48;;;;;;;;;;;;;;;19.96;67.33;101364.78;4160897;28;20032;-71
2023/08/12 03:52:50;;;;;;;;;;;;;;;19.96;67.66;101370.25;4153645;28;20459;-71
2023/08/12 03:54:53;;;;;;;;;;;;;;;19.96;67.51;101367.53;4171497;28;20364;-71
2023/08/12 03:56:56;;;;;;;;;;;;;;;19.96;67.36;101364.78;4176382;28;20021;-71
2023/08/12 03:58:59;;;;;;;;;;;;;;;19.95;67.27;101371.31;4153115;28;20036;-71
2023/08/12 04:01:00;;;;;;;;;;;;;;;19.94;67.34;101370.50;4171215;28;19971;-72
2023/08/12 04:03:02;;;;;;;;;;;;;;;19.94;67.37;101367.75;4153942;28;20020;-72
2023/08/12 04:05:03;;;;;;;;;;;;;;;19.94;67.32;101361.44;4153289;28;20028;-71
2023/08/12 04:07:07;;;;;;;;;;;;;;;19.94;67.24;101356.78;4152852;28;20017;-71
2023/08/12 04:09:09;;;;;;;;;;;;;;;19.95;67.09;101354.88;4169998;28;20015;-71
2023/08/12 04:11:11;;;;;;;;;;;;;;;19.95;67.21;101360.34;4154460;28;20036;-71
2023/08/12 04:13:15;;;;;;;;;;;;;;;19.95;67.36;101357.59;4154167;28;20033;-71
2023/08/12 04:15:17;;;;;;;;;;;;;;;19.95;67.05;101355.72;4160504;28;19954;-71
2023/08/12 04:17:19;;;;;;;;;;;;;;;19.95;66.94;101354.88;4171419;28;20019;-71
2023/08/12 04:19:21;;;;;;;;;;;;;;;19.94;66.95;101358.69;4160654;28;20399;-72
2023/08/12 04:21:23;;;;;;;;;;;;;;;19.93;67.12;101351.53;4160291;28;20375;-71
2023/08/12 04:23:27;;;;;;;;;;;;;;;19.91;66.75;101342.69;4160647;28;20017;-71
2023/08/12 04:25:29;;;;;;;;;;;;;;;19.90;66.90;101341.84;4171688;28;20028;-71
2023/08/12 04:27:32;;;;;;;;;;;;;;;19.91;66.93;101348.19;4161012;28;19929;-71
2023/08/12 04:29:38;;;;;;;;;;;;;;;19.90;67.14;101351.97;4172017;28;19924;-71
2023/08/12 04:31:40;;;;;;;;;;;;;;;19.90;66.90;101341.00;4171397;28;20482;-72
2023/08/12 04:33:42;;;;;;;;;;;;;;;19.89;66.75;101345.66;4160515;28;20011;-70
2023/08/12 04:35:45;;;;;;;;;;;;;;;19.88;66.51;101343.13;4160431;28;20355;-71
2023/08/12 04:37:48;;;;;;;;;;;;;;;19.87;66.96;101350.50;4153304;28;20069;-71
2023/08/12 04:39:51;;;;;;;;;;;;;;;19.88;66.94;101345.88;4173024;28;20024;-71
2023/08/12 04:41:56;;;;;;;;;;;;;;;19.86;66.89;101353.47;4164396;28;19929;-71
2023/08/12 04:43:58;;;;;;;;;;;;;;;19.85;66.97;101349.91;4174856;28;20032;-71
2023/08/12 04:46:04;;;;;;;;;;;;;;;19.82;67.01;101350.34;4140096;28;20017;-71
2023/08/12 04:48:06;;;;;;;;;;;;;;;19.80;67.12;101356.06;4163901;28;20069;-71
2023/08/12 04:50:10;;;;;;;;;;;;;;;19.82;67.31;101352.25;4162276;28;20016;-70
2023/08/12 04:52:12;;;;;;;;;;;;;;;19.83;67.12;101359.41;4155609;28;20004;-71
2023/08/12 04:54:15;;;;;;;;;;;;;;;19.83;67.31;101348.44;4174182;28;20365;-72
2023/08/12 04:56:19;;;;;;;;;;;;;;;19.85;67.24;101346.31;4156393;28;20451;-72
2023/08/12 04:58:21;;;;;;;;;;;;;;;19.86;67.23;101345.25;4180132;28;19967;-72
2023/08/12 05:00:24;;;;;;;;;;;;;;;19.88;67.11;101351.38;4178794;28;20454;-72
2023/08/12 05:02:27;;;;;;;;;;;;;;;19.89;67.06;101356.63;4156512;28;20633;-72
2023/08/12 05:04:29;;;;;;;;;;;;;;;19.90;67.03;101349.22;4155408;28;20020;-72
2023/08/12 05:06:30;;;;;;;;;;;;;;;19.91;67.18;101349.00;4156372;28;20024;-71
2023/08/12 05:08:33;;;;;;;;;;;;;;;19.92;66.86;101352.56;4155181;28;20012;-72
2023/08/12 05:10:35;;;;;;;;;;;;;;;19.93;67.20;101343.28;4163398;28;20012;-72
2023/08/12 05:12:37;;;;;;;;;;;;;;;19.94;66.88;101342.25;4173482;28;20042;-71
2023/08/12 05:14:40;;;;;;;;;;;;;;;19.95;67.04;101343.91;4155604;28;19932;-71
2023/08/12 05:16:43;;;;;;;;;;;;;;;19.94;67.06;101342.25;4163522;28;20025;-72
2023/08/12 05:18:45;;;;;;;;;;;;;;;19.96;66.96;101340.94;4155544;28;20056;-72
2023/08/12 05:20:47;;;;;;;;;;;;;;;19.97;67.03;101339.88;4170980;28;20023;-71
2023/08/12 05:22:50;;;;;;;;;;;;;;;19.99;67.12;101335.00;4157867;28;19935;-71
2023/08/12 05:24:52;;;;;;;;;;;;;;;20.00;67.04;101335.88;4155979;28;20016;-71
2023/08/12 05:26:56;;;;;;;;;;;;;;;20.03;66.96;101340.03;4159389;28;20028;-71
2023/08/12 05:29:00;;;;;;;;;;;;;;;20.04;67.02;101341.72;4159451;28;20016;-71
2023/08/12 05:31:02;;;;;;;;;;;;;;;20.05;67.10;101341.50;4157319;28;20016;-71
2023/08/12 05:33:04;;;;;;;;;;;;;;;20.07;66.84;101342.09;4158226;28;20454;-70
2023/08/12 05:35:06;;;;;;;;;;;;;;;20.09;66.86;101336.41;4157579;28;20035;-71
2023/08/12 05:37:08;;;;;;;;;;;;;;;20.10;66.99;101336.16;4157963;28;20032;-70
2023/08/12 05:39:10;;;;;;;;;;;;;;;20.12;66.97;101334.03;4158287;28;20016;-72
2023/08/12 05:41:12;;;;;;;;;;;;;;;20.14;67.09;101326.44;4155580;28;20510;-70
2023/08/12 05:43:15;;;;;;;;;;;;;;;20.17;66.97;101323.25;4156933;28;19968;-71
2023/08/12 05:45:18;;;;;;;;;;;;;;;20.21;66.95;101322.78;4158679;28;20021;-71
2023/08/12 05:47:20;;;;;;;;;;;;;;;20.23;67.10;101318.72;4157876;28;20849;-72
2023/08/12 05:49:22;;;;;;;;;;;;;;;20.26;66.93;101323.75;4157352;28;20016;-71
2023/08/12 05:51:24;;;;;;;;;;;;;;;20.29;66.95;101327.97;4157418;28;20642;-71
2023/08/12 05:53:26;;;;;;;;;;;;;;;20.32;66.80;101327.50;4158089;28;20027;-71
2023/08/12 05:55:28;;;;;;;;;;;;;;;20.35;66.85;101324.31;4156670;28;20040;-71
2023/08/12 05:57:30;;;;;;;;;;;;;;;20.38;66.65;101318.38;4157372;28;20020;-71
2023/08/12 05:59:32;;;;;;;;;;;;;;;20.41;66.54;101323.41;4156539;28;20347;-71
2023/08/12 06:01:35;;;;;;;;;;;;;;;20.45;66.43;101313.63;4157206;28;20012;-71
2023/08/12 06:03:37;;;;;;;;;;;;;;;20.48;66.45;101317.84;4157741;28;19925;-71
2023/08/12 06:05:41;;;;;;;;;;;;;;;20.51;66.19;101325.59;4155514;28;20012;-71
2023/08/12 06:07:43;;;;;;;;;;;;;;;20.53;66.23;101313.34;4154448;28;20020;-71
2023/08/12 06:09:45;;;;;;;;;;;;;;;20.55;66.25;101320.50;4155841;28;20399;-71
2023/08/12 06:11:47;;;;;;;;;;;;;;;20.58;66.29;101317.28;4158716;28;20442;-71
2023/08/12 06:13:49;;;;;;;;;;;;;;;20.60;66.24;101318.75;4157745;28;20016;-71
2023/08/12 06:15:51;;;;;;;;;;;;;;;20.64;66.25;101327.34;4165458;28;20044;-71
2023/08/12 06:17:55;;;;;;;;;;;;;;;20.65;66.02;101324.41;4175697;28;20052;-71
2023/08/12 06:19:57;;;;;;;;;;;;;;;20.66;66.16;101323.34;4156827;28;20031;-72
2023/08/12 06:21:59;;;;;;;;;;;;;;;20.67;66.02;101316.81;4173584;28;20032;-71
2023/08/12 06:24:01;;;;;;;;;;;;;;;20.69;65.99;101316.56;4173374;28;19932;-71
2023/08/12 06:26:03;;;;;;;;;;;;;;;20.71;66.14;101322.66;4172394;28;20027;-71
2023/08/12 06:28:05;;;;;;;;;;;;;;;20.73;65.94;101322.44;4173201;28;20008;-71
2023/08/12 06:30:08;;;;;;;;;;;;;;;20.75;65.98;101312.03;4170776;28;19953;-70
2023/08/12 06:32:12;;;;;;;;;;;;;;;20.77;66.14;101312.66;4171922;28;20021;-71
2023/08/12 06:34:16;;;;;;;;;;;;;;;20.79;65.99;101318.75;4171087;28;20024;-71
2023/08/12 06:36:17;;;;;;;;;;;;;;;20.80;65.95;101314.94;4173264;28;20027;-71
2023/08/12 06:38:19;;;;;;;;;;;;;;;20.83;65.79;101319.97;4173285;28;20008;-71
2023/08/12 06:40:21;;;;;;;;;;;;;;;20.85;65.96;101321.41;4173910;28;20019;-71
2023/08/12 06:42:23;;;;;;;;;;;;;;;20.88;65.84;101320.13;4172090;28;20020;-71
2023/08/12 06:44:26;;;;;;;;;;;;;;;20.90;65.90;101320.72;4173913;28;19925;-71
2023/08/12 06:46:30;;;;;;;;;;;;;;;20.92;65.80;101321.31;4172434;28;20426;-71
2023/08/12 06:48:32;;;;;;;;;;;;;;;20.93;65.99;101317.50;4172581;28;20023;-71
2023/08/12 06:50:35;;;;;;;;;;;;;;;20.95;65.77;101318.09;4171320;28;20028;-71
2023/08/12 06:52:37;;;;;;;;;;;;;;;20.97;66.02;101310.50;4154325;28;20013;-71
2023/08/12 06:54:39;;;;;;;;;;;;;;;21.00;65.93;101309.16;4171726;28;20024;-71
2023/08/12 06:56:41;;;;;;;;;;;;;;;21.02;65.83;101309.81;4172378;28;20028;-71
2023/08/12 06:58:43;;;;;;;;;;;;;;;21.04;65.51;101308.47;4155182;28;20012;-72
2023/08/12 07:00:45;;;;;;;;;;;;;;;21.06;65.72;101311.00;4172653;28;20016;-72
2023/08/12 07:02:47;;;;;;;;;;;;;;;21.09;65.55;101309.69;4172032;28;20021;-72
2023/08/12 07:04:49;;;;;;;;;;;;;;;21.12;65.60;101311.97;4171054;28;20439;-72
2023/08/12 07:06:51;;;;;;;;;;;;;;;21.12;65.63;101312.81;4173309;28;20012;-71
2023/08/12 07:08:53;;;;;;;;;;;;;;;21.14;65.44;101309.81;4172965;28;20008;-72
2023/08/12 07:10:54;;;;;;;;;;;;;;;21.14;65.39;101305.16;4173758;28;19957;-72
2023/08/12 07:12:56;;;;;;;;;;;;;;;21.17;65.27;101310.19;4172374;28;19925;-71
2023/08/12 07:14:58;;;;;;;;;;;;;;;21.19;65.30;101298.97;4171481;28;20013;-71
2023/08/12 07:17:00;;;;;;;;;;;;;;;21.19;65.49;101299.81;4155194;28;20027;-71
2023/08/12 07:19:02;;;;;;;;;;;;;;;21.20;65.30;101293.25;4172307;28;20015;-72
2023/08/12 07:21:04;;;;;;;;;;;;;;;21.22;65.27;101285.63;4172042;28;20015;-71
2023/08/12 07:23:08;;;;;;;;;;;;;;;21.23;65.27;101284.53;4172462;28;20025;-72
2023/08/12 07:25:12;;;;;;;;;;;;;;;21.25;65.12;101289.78;4171940;28;19936;-71
2023/08/12 07:27:14;;;;;;;;;;;;;;;21.26;65.07;101294.22;4173183;28;20012;-71
2023/08/12 07:29:16;;;;;;;;;;;;;;;21.29;65.02;101298.41;4172106;28;20015;-71
2023/08/12 07:31:18;;;;;;;;;;;;;;;21.31;64.84;101301.75;4171866;28;20446;-72
2023/08/12 07:33:20;;;;;;;;;;;;;;;21.33;65.16;101302.34;4171118;28;20021;-71
2023/08/12 07:35:22;;;;;;;;;;;;;;;21.35;64.88;101290.06;4172362;28;20028;-72
2023/08/12 07:37:23;;;;;;;;;;;;;;;21.37;64.91;101293.41;4177644;28;20024;-72
2023/08/12 07:39:27;;;;;;;;;;;;;;;21.40;64.96;101292.09;4171805;28;19925;-72
2023/08/12 07:41:29;;;;;;;;;;;;;;;21.43;65.00;101283.38;4171698;28;20011;-72
2023/08/12 07:43:31;;;;;;;;;;;;;;;21.46;64.88;101282.91;4172195;28;20023;-72
2023/08/12 07:45:33;;;;;;;;;;;;;;;21.48;64.63;101283.50;4172386;28;19932;-72
2023/08/12 07:47:35;;;;;;;;;;;;;;;21.52;64.70;101293.00;4172753;28;20016;-73
2023/08/12 07:49:37;;;;;;;;;;;;;;;21.55;64.61;101283.41;4171193;28;20451;-74
2023/08/12 07:51:39;;;;;;;;;;;;;;;21.58;64.59;101288.44;4171681;28;20016;-72
2023/08/12 07:53:40;;;;;;;;;;;;;;;21.60;64.46;101286.31;4171660;28;20100;-73
2023/08/12 07:55:44;;;;;;;;;;;;;;;21.62;64.12;101284.16;4172062;28;19929;-73
2023/08/12 07:57:46;;;;;;;;;;;;;;;21.65;64.23;101271.88;4171612;28;20055;-72
2023/08/12 07:59:48;;;;;;;;;;;;;;;21.67;64.16;101272.44;4171038;28;20024;-72
2023/08/12 08:01:50;;;;;;;;;;;;;;;21.69;63.91;101273.03;4170580;28;20075;-72
2023/08/12 08:03:52;;;;;;;;;;;;;;;21.71;64.10;101274.50;4172168;28;20015;-72
2023/08/12 08:05:54;;;;;;;;;;;;;;;21.72;63.93;101269.81;4171531;28;20027;-72
2023/08/12 08:07:56;;;;;;;;;;;;;;;21.75;63.78;101272.91;4170388;28;20414;-72
2023/08/12 08:09:58;;;;;;;;;;;;;;;21.78;63.91;101274.38;4171530;28;20023;-72
2023/08/12 08:12:02;;;;;;;;;;;;;;;21.81;63.99;101273.06;4171137;28;20454;-72
2023/08/12 08:14:08;;;;;;;;;;;;;;;21.84;63.72;101272.59;4170659;28;20366;-71
2023/08/12 08:16:10;;;;;;;;;;;;;;;21.85;63.78;101277.84;4170519;28;20039;-71
2023/08/12 08:18:12;;;;;;;;;;;;;;;21.88;63.82;101266.38;4159683;28;20020;-73
2023/08/12 08:20:16;;;;;;;;;;;;;;;21.90;63.61;101271.63;4171036;28;19925;-73
2023/08/12 08:22:18;;;;;;;;;;;;;;;21.91;63.79;101271.38;4152150;28;20028;-71
2023/08/12 08:24:20;;;;;;;;;;;;;;;21.93;63.43;101274.72;4171423;28;20027;-71
2023/08/12 08:26:24;;;;;;;;;;;;;;;21.95;63.71;101278.06;4173351;28;19929;-71
2023/08/12 08:28:30;;;;;;;;;;;;;;;21.97;63.74;101272.31;4171592;28;20027;-71
2023/08/12 08:30:33;;;;;;;;;;;;;;;22.00;63.59;101271.84;4171476;28;20020;-70
2023/08/12 08:32:37;;;;;;;;;;;;;;;22.00;63.38;101266.34;4175980;28;20024;-70
2023/08/12 08:34:39;;;;;;;;;;;;;;;22.02;63.65;101277.97;4170742;28;20458;-70
2023/08/12 08:36:41;;;;;;;;;;;;;;;22.04;63.42;101275.78;4169897;28;20430;-71
2023/08/12 08:38:43;;;;;;;;;;;;;;;22.06;63.42;101278.31;4169385;28;20020;-71
2023/08/12 08:40:45;;;;;;;;;;;;;;;22.08;63.23;101276.13;4150557;28;20020;-70
2023/08/12 08:42:47;;;;;;;;;;;;;;;22.07;63.51;101271.69;4152838;28;20020;-71
2023/08/12 08:44:50;;;;;;;;;;;;;;;22.10;63.51;101276.72;4169623;28;20047;-71
2023/08/12 08:46:53;;;;;;;;;;;;;;;22.11;63.40;101281.16;4170901;28;20052;-71
2023/08/12 08:48:54;;;;;;;;;;;;;;;22.11;63.57;101276.47;4170333;28;20051;-70
2023/08/12 08:50:56;;;;;;;;;;;;;;;22.12;63.30;101277.34;4169404;28;20008;-71
2023/08/12 08:52:58;;;;;;;;;;;;;;;22.12;63.56;101280.91;4170038;28;20028;-72
2023/08/12 08:55:01;;;;;;;;;;;;;;;22.12;63.65;101275.41;4170670;28;20016;-71
2023/08/12 08:57:04;;;;;;;;;;;;;;;22.12;63.45;101271.84;4169261;28;20031;-70
2023/08/12 08:59:06;;;;;;;;;;;;;;;22.12;63.65;101278.16;4170177;28;20011;-70
2023/08/12 09:01:09;;;;;;;;;;;;;;;22.12;63.33;101272.66;4170562;28;20055;-70
2023/08/12 09:03:12;;;;;;;;;;;;;;;22.11;63.37;101268.22;4170398;28;20039;-70
2023/08/12 09:05:14;;;;;;;;;;;;;;;22.12;63.59;101277.34;4170638;28;20563;-70
2023/08/12 09:07:19;;;;;;;;;;;;;;;22.13;63.75;101281.75;4169646;28;20264;-70
2023/08/12 09:09:21;;;;;;;;;;;;;;;22.12;63.70;101283.66;4143043;28;19929;-70
2023/08/12 09:11:23;;;;;;;;;;;;;;;22.12;63.77;101289.16;4170937;28;20016;-70
2023/08/12 09:13:24;;;;;;;;;;;;;;;22.13;64.07;101279.00;4171018;28;20371;-69
2023/08/12 09:15:26;;;;;;;;;;;;;;;22.13;64.02;101290.00;4152266;28;20109;-70
2023/08/12 09:17:30;;;;;;;;;;;;;;;22.14;63.94;101281.50;4153899;28;20031;-70
2023/08/12 09:19:32;;;;;;;;;;;;;;;22.12;64.34;101274.59;4153775;28;20023;-70
2023/08/12 09:21:34;;;;;;;;;;;;;;;22.16;63.90;101266.69;4154079;28;20013;-71
2023/08/12 09:23:36;;;;;;;;;;;;;;;22.17;63.85;101266.44;4154889;28;19937;-71
2023/08/12 09:25:42;;;;;;;;;;;;;;;22.18;64.02;101265.38;4155897;28;20028;-70
2023/08/12 09:27:44;;;;;;;;;;;;;;;22.19;64.25;101275.28;4156977;28;20723;-71
2023/08/12 09:29:46;;;;;;;;;;;;;;;22.20;64.38;101279.72;4157631;28;20020;-71
2023/08/12 09:31:48;;;;;;;;;;;;;;;22.23;64.46;101276.47;4157176;28;20021;-71
2023/08/12 09:33:51;;;;;;;;;;;;;;;22.25;64.08;101277.06;4156667;28;20013;-71
2023/08/12 09:35:53;;;;;;;;;;;;;;;22.28;64.29;101270.25;4156840;28;20040;-71
2023/08/12 09:37:55;;;;;;;;;;;;;;;22.28;64.14;101265.56;4157469;28;20012;-71
2023/08/12 09:39:57;;;;;;;;;;;;;;;22.30;64.21;101263.47;4156389;28;20353;-71
2023/08/12 09:42:01;;;;;;;;;;;;;;;22.35;63.94;101260.00;4163677;28;20016;-71
2023/08/12 09:44:05;;;;;;;;;;;;;;;22.40;63.98;101256.47;4157154;28;20366;-71
2023/08/12 09:46:07;;;;;;;;;;;;;;;22.43;64.03;101262.34;4155503;28;20008;-71
2023/08/12 09:48:09;;;;;;;;;;;;;;;22.46;64.25;101250.00;4156594;28;20482;-71
2023/08/12 09:50:13;;;;;;;;;;;;;;;22.48;63.80;101250.63;4156289;28;20376;-71
2023/08/12 09:52:15;;;;;;;;;;;;;;;22.48;63.85;101250.63;4154517;28;20062;-71
2023/08/12 09:54:17;;;;;;;;;;;;;;;22.53;63.98;101247.97;4156742;28;20019;-70
2023/08/12 09:56:19;;;;;;;;;;;;;;;22.56;63.53;101246.63;4157092;28;20008;-71
2023/08/12 09:58:22;;;;;;;;;;;;;;;22.57;63.67;101243.66;4156213;28;20024;-71
2023/08/12 10:00:25;;;;;;;;;;;;;;;22.59;63.85;101255.25;4157251;28;20444;-71
2023/08/12 10:02:27;;;;;;;;;;;;;;;22.60;64.02;101250.56;4157335;28;19952;-71
2023/08/12 10:04:29;;;;;;;;;;;;;;;22.62;64.05;101253.91;4156456;28;20020;-73
2023/08/12 10:06:33;;;;;;;;;;;;;;;22.63;64.16;101245.41;4155528;28;19933;-70
2023/08/12 10:08:36;;;;;;;;;;;;;;;22.66;63.93;101241.31;4157173;28;20020;-70
2023/08/12 10:10:38;;;;;;;;;;;;;;;22.67;63.76;101241.06;4156851;28;20036;-70
2023/08/12 10:12:40;;;;;;;;;;;;;;;22.70;64.09;101242.50;4156844;28;19925;-70
2023/08/12 10:14:43;;;;;;;;;;;;;;;22.72;64.07;101236.75;4156847;28;20020;-71
2023/08/12 10:16:46;;;;;;;;;;;;;;;22.74;64.07;101237.34;4173580;28;20076;-71
2023/08/12 10:18:48;;;;;;;;;;;;;;;22.76;64.01;101235.16;4173625;28;20315;-71
2023/08/12 10:20:50;;;;;;;;;;;;;;;22.78;64.18;101233.03;4173266;28;20396;-70
2023/08/12 10:22:53;;;;;;;;;;;;;;;22.79;63.93;101227.25;4154068;28;20463;-70
2023/08/12 10:24:54;;;;;;;;;;;;;;;22.81;64.35;101224.25;4173266;28;20466;-71
2023/08/12 10:26:56;;;;;;;;;;;;;;;22.82;64.42;101225.91;4172942;28;20016;-70
2023/08/12 10:28:57;;;;;;;;;;;;;;;22.82;64.55;101221.28;4172563;28;19963;-71